Time;durP1;ratioP1;P1;durP2;ratioP2;P2;SDS_P1;SDS_P2;PMS_P1;PMS_P2;Temp;Humidity;BMP_temperature;BMP_pressure;BME280_temperature;BME280_humidity;BME280_pressure;Samples;Min_cycle;Max_cycle;Signal;HPM_P1;HPM_P2
2023/03/27 00:01:10;;;;;;;6.30;3.80;;;;;;;-141.97;45.86;47430.66;4942978;29;20169;-93
2023/03/27 00:03:37;;;;;;;9.03;5.03;;;;;;;-141.97;45.32;47434.50;4942429;29;20190;-92
2023/03/27 00:06:08;;;;;;;13.43;6.57;;;;;;;-141.97;46.00;47586.34;4941884;29;20173;-91
2023/03/27 00:08:35;;;;;;;25.57;10.53;;;;;;;-141.97;45.61;47461.41;4957280;29;20169;-91
2023/03/27 00:11:01;;;;;;;13.13;7.50;;;;;;;-141.97;46.10;47592.13;4958149;29;20192;-91
2023/03/27 00:13:28;;;;;;;17.83;8.80;;;;;;;-141.97;46.72;47440.28;4942919;29;20169;-93
2023/03/27 00:15:55;;;;;;;30.10;12.80;;;;;;;-141.97;46.98;47584.44;4959545;29;20173;-93
2023/03/27 00:18:22;;;;;;;37.73;16.50;;;;;;;-141.97;46.76;47542.16;4941868;29;20181;-93
2023/03/27 00:20:48;;;;;;;55.10;23.17;;;;;;;-141.97;47.00;47392.22;4942545;29;20184;-92
2023/03/27 00:23:13;;;;;;;218.47;73.27;;;;;;;-141.97;47.54;47461.41;4958287;29;20542;-92
2023/03/27 00:25:39;;;;;;;39.47;17.70;;;;;;;-141.97;48.19;47665.16;4960039;29;20570;-93
2023/03/27 00:28:07;;;;;;;60.27;26.30;;;;;;;-141.97;48.69;47436.44;4958287;29;20176;-94
2023/03/27 00:30:34;;;;;;;35.07;16.73;;;;;;;-141.97;49.16;47576.75;4942835;29;20204;-94
2023/03/27 00:32:59;;;;;;;28.73;13.17;;;;;;;-141.97;49.25;47565.22;4960169;29;20229;-92
2023/03/27 00:35:27;;;;;;;11.30;6.57;;;;;;;-141.97;49.22;47615.19;4943268;29;20253;-92
2023/03/27 00:37:53;;;;;;;10.60;5.23;;;;;;;-141.97;48.87;47363.41;4958691;29;20183;-93
2023/03/27 00:40:19;;;;;;;7.50;4.90;;;;;;;-141.97;49.33;47655.53;4959010;29;20164;-92
2023/03/27 00:42:47;;;;;;;7.93;4.73;;;;;;;-141.97;49.65;47376.84;4958526;28;20183;-93
2023/03/27 00:45:25;;;;;;;14.83;7.97;;;;;;;-141.97;48.64;47655.53;4957897;29;20184;-92
2023/03/27 00:47:56;;;;;;;26.67;18.73;;;;;;;-141.97;48.79;47411.44;4940891;29;20692;-92
2023/03/27 00:50:27;;;;;;;17.10;9.13;;;;;;;-141.97;48.83;47644.00;4940575;29;20598;-93
2023/03/27 00:53:00;;;;;;;13.13;7.50;;;;;;;-141.97;48.67;47630.56;4957286;29;20169;-92
2023/03/27 00:55:30;;;;;;;14.03;7.30;;;;;;;-141.97;48.97;47567.13;4941209;29;20176;-93
2023/03/27 00:58:02;;;;;;;16.93;8.90;;;;;;;-141.97;48.58;47457.56;4941328;29;20189;-92
2023/03/27 01:00:28;;;;;;;45.13;21.17;;;;;;;-141.97;48.70;47546.00;4959434;28;20172;-93
2023/03/27 01:02:54;;;;;;;38.70;18.23;;;;;;;-141.97;48.18;47532.53;4946283;29;20275;-91
2023/03/27 01:05:20;;;;;;;24.23;13.30;;;;;;;-141.97;48.50;47349.94;4950598;29;20208;-93
2023/03/27 01:07:47;;;;;;;12.83;6.53;;;;;;;-141.97;49.11;47647.84;4943182;29;20180;-93
2023/03/27 01:10:15;;;;;;;14.27;7.33;;;;;;;-141.97;48.70;47365.31;4942351;29;20215;-93
2023/03/27 03:12:50;;;;;;;8.73;4.33;;;;;;;-141.97;50.87;47563.28;2439144;23;20521;31
2023/03/27 03:15:17;;;;;;;11.20;4.60;;;;;;;-141.97;50.46;47572.91;4956025;28;20249;-92
2023/03/27 03:17:43;;;;;;;10.83;4.30;;;;;;;-141.97;50.29;47553.69;4956042;28;20249;-93
2023/03/27 03:20:11;;;;;;;8.93;4.50;;;;;;;-141.97;50.59;47584.44;4955831;29;20237;-92
2023/03/27 03:22:38;;;;;;;10.77;5.07;;;;;;;-141.97;50.34;47438.34;4954642;29;20268;-92
2023/03/27 03:25:06;;;;;;;9.67;4.90;;;;;;;-141.97;50.90;47632.47;4923072;29;20213;-92
2023/03/27 03:27:32;;;;;;;9.10;5.07;;;;;;;-141.97;50.70;47453.72;4922563;29;20259;-93
2023/03/27 04:46:47;;;;;;;29.25;11.60;;;;;;;-141.97;56.20;47592.13;4148314;23;20215;31
2023/03/27 04:49:13;;;;;;;27.03;12.07;;;;;;;-141.97;56.48;47553.69;4828161;29;20837;-91
2023/03/27 04:51:40;;;;;;;29.60;11.73;;;;;;;-141.97;55.55;47661.31;4832799;29;20217;-91
2023/03/27 04:54:06;;;;;;;32.70;12.63;;;;;;;-141.97;55.36;47663.22;4828886;29;20178;-92
2023/03/27 04:56:33;;;;;;;24.27;10.17;;;;;;;-141.97;55.77;47542.16;4828823;29;20224;-92
2023/03/27 04:59:00;;;;;;;21.87;10.47;;;;;;;-141.97;55.40;47422.97;4829087;29;20189;-91
2023/03/27 05:01:25;;;;;;;38.83;17.77;;;;;;;-141.97;56.18;47434.50;4825525;29;20201;-92
2023/03/27 05:03:52;;;;;;;28.80;14.67;;;;;;;-141.97;57.00;47663.22;4825731;29;20614;-92
2023/03/27 05:06:18;;;;;;;27.10;11.90;;;;;;;-141.97;58.62;47607.50;4825045;29;20181;-91
2023/03/27 05:08:43;;;;;;;25.53;10.67;;;;;;;-141.97;58.57;47492.16;4825694;29;20194;-93
2023/03/27 05:11:09;;;;;;;17.70;9.73;;;;;;;-141.97;59.40;47659.38;4852077;29;20189;-92
2023/03/27 05:21:17;;;;;;;20.27;11.20;;;;;;;-141.97;57.58;47519.06;4806452;29;20241;-91
2023/03/27 05:23:42;;;;;;;21.20;10.67;;;;;;;-141.97;58.02;47542.16;4836676;29;20198;-93
2023/03/27 05:26:08;;;;;;;24.47;11.97;;;;;;;-141.97;59.37;47471.03;4823718;29;20177;-90
2023/03/27 05:28:34;;;;;;;25.10;12.87;;;;;;;-141.97;60.44;47665.16;4841515;29;20185;-92
2023/03/27 05:30:59;;;;;;;25.50;12.30;;;;;;;-141.97;60.68;47394.16;4842038;29;20209;-93
2023/03/27 05:33:25;;;;;;;31.10;13.53;;;;;;;-141.97;60.02;47355.72;4857816;29;20178;-94
2023/03/27 05:35:51;;;;;;;24.73;13.67;;;;;;;-141.97;61.80;47496.00;4858322;29;20181;-92
2023/03/27 05:38:17;;;;;;;27.33;15.23;;;;;;;-141.97;62.13;47459.50;4841505;29;20184;-92
2023/03/27 05:40:43;;;;;;;24.17;13.03;;;;;;;-141.97;63.23;47642.09;4824912;29;20226;-92
2023/03/27 05:43:09;;;;;;;24.47;13.47;;;;;;;-141.97;64.08;47544.06;4818777;29;20193;-91
2023/03/27 05:45:35;;;;;;;27.03;13.37;;;;;;;-141.97;62.78;47380.69;4869680;29;20533;-90
2023/03/27 05:48:01;;;;;;;28.53;14.60;;;;;;;-141.97;61.80;47555.59;4862948;29;20181;-90
2023/03/27 05:50:32;;;;;;;29.33;14.07;;;;;;;-141.97;62.90;47480.63;4825334;29;20230;-90
2023/03/27 05:53:06;;;;;;;28.97;14.23;;;;;;;-141.97;61.64;47399.91;4826355;29;20510;-93
2023/03/27 05:55:32;;;;;;;26.30;13.80;;;;;;;-141.97;61.51;47586.34;4826782;29;20271;-92
2023/03/27 05:57:58;;;;;;;28.10;13.60;;;;;;;-141.97;61.79;47603.66;4840946;29;20545;-92
2023/03/27 06:00:24;;;;;;;27.40;14.77;;;;;;;-141.97;61.74;47609.41;4846208;29;20173;-91
2023/03/27 06:02:53;;;;;;;26.33;14.00;;;;;;;-141.97;62.12;47553.69;4852293;29;20201;-93
2023/03/27 06:05:20;;;;;;;27.80;14.47;;;;;;;-141.97;61.49;47684.38;4844083;29;20178;-93
2023/03/27 06:07:46;;;;;;;28.23;15.50;;;;;;;-141.97;61.98;47613.25;4843075;29;20782;-93
2023/03/27 06:10:14;;;;;;;30.33;15.83;;;;;;;-141.97;61.69;47638.25;4827654;29;20201;-93
2023/03/27 06:12:40;;;;;;;36.37;16.73;;;;;;;-141.97;61.95;47653.63;4855996;29;20283;-93
2023/03/27 06:15:08;;;;;;;29.13;15.70;;;;;;;-141.97;62.93;47547.91;4849661;29;20181;-94
2023/03/27 06:17:34;;;;;;;29.50;16.37;;;;;;;-141.97;62.58;47661.31;4835605;29;20625;-92
2023/03/27 06:19:59;;;;;;;32.17;16.33;;;;;;;-141.97;63.46;47422.97;4841251;29;20709;-93
2023/03/27 06:22:25;;;;;;;32.47;17.47;;;;;;;-141.97;63.65;47720.91;4829940;29;20185;-92
2023/03/27 06:24:52;;;;;;;32.43;17.43;;;;;;;-141.97;63.15;47399.91;4839957;29;20545;-94
2023/03/27 06:27:19;;;;;;;30.80;16.43;;;;;;;-141.97;64.64;47446.03;4824948;29;20189;-92
2023/03/27 06:29:46;;;;;;;32.87;17.07;;;;;;;-141.97;64.83;47553.69;4824412;29;20212;-92
2023/03/27 06:32:12;;;;;;;32.03;16.83;;;;;;;-141.97;64.53;47653.63;4823770;29;20203;-92
2023/03/27 06:34:38;;;;;;;31.27;16.73;;;;;;;-141.97;64.14;47480.63;4826162;29;20185;-92
2023/03/27 06:37:03;;;;;;;30.23;16.70;;;;;;;-141.97;63.18;47474.88;4823846;29;20248;-92
2023/03/27 06:39:29;;;;;;;37.73;16.93;;;;;;;-141.97;62.31;47663.22;4839244;29;20188;-92
2023/03/27 06:41:55;;;;;;;29.03;15.90;;;;;;;-141.97;63.04;47380.69;4826746;29;20180;-93
2023/03/27 06:44:20;;;;;;;29.73;16.60;;;;;;;-141.97;63.16;47569.06;4841971;29;20184;-91
2023/03/27 06:46:46;;;;;;;30.97;16.07;;;;;;;-141.97;61.91;47597.88;4846347;29;20181;-94
2023/03/27 06:49:12;;;;;;;33.20;17.53;;;;;;;-141.97;61.57;47363.41;4831151;29;20173;-93
2023/03/27 06:51:38;;;;;;;31.27;17.30;;;;;;;-141.97;58.55;47421.06;4843075;29;20216;-94
2023/03/27 06:54:03;;;;;;;31.97;16.90;;;;;;;-141.97;57.46;47486.41;4826844;29;20177;-94
2023/03/27 06:56:29;;;;;;;29.17;15.83;;;;;;;-141.97;56.25;47438.34;4828471;29;20193;-90
2023/03/27 06:58:57;;;;;;;30.57;15.73;;;;;;;-141.97;56.25;47605.56;4844153;29;20241;-93
2023/03/27 07:01:23;;;;;;;28.17;16.17;;;;;;;-141.97;56.93;47686.31;4830367;29;20214;-94
2023/03/27 07:03:48;;;;;;;29.97;16.67;;;;;;;-141.97;57.56;47388.38;4846636;29;20252;-94
2023/03/27 07:06:15;;;;;;;29.30;16.30;;;;;;;-141.97;57.05;47718.97;4849052;29;20185;-93
2023/03/27 07:08:40;;;;;;;29.30;16.13;;;;;;;-141.97;55.84;47588.28;4838097;29;20186;-90
2023/03/27 07:11:09;;;;;;;26.03;15.83;;;;;;;-141.97;55.03;47586.34;4855234;29;20216;-91
2023/03/27 07:13:34;;;;;;;27.77;16.60;;;;;;;-141.97;54.74;47394.16;4853922;29;20180;-92
2023/03/27 07:16:00;;;;;;;27.83;15.47;;;;;;;-141.97;54.34;47444.13;4845516;29;20264;-93
2023/03/27 07:18:25;;;;;;;27.97;15.87;;;;;;;-141.97;54.27;47657.47;4830219;29;20236;-90
2023/03/27 07:20:51;;;;;;;25.83;15.90;;;;;;;-141.97;53.27;47688.22;4837330;29;20258;-93
2023/03/27 07:23:16;;;;;;;28.73;16.00;;;;;;;-141.97;51.71;47678.63;4844328;29;20189;-92
2023/03/27 07:25:42;;;;;;;27.83;16.47;;;;;;;-141.97;51.35;47680.53;4814158;29;20185;-93
2023/03/27 07:28:15;;;;;;;30.67;16.37;;;;;;;-141.97;51.52;47595.97;4827797;29;20211;-94
2023/03/27 07:30:41;;;;;;;28.70;15.97;;;;;;;-141.97;51.67;47496.00;4848712;29;20206;-92
2023/03/27 07:33:11;;;;;;;29.40;16.80;;;;;;;-141.97;52.55;47674.78;4821736;29;20627;-92
2023/03/27 07:35:41;;;;;;;26.47;15.73;;;;;;;-141.97;53.28;47709.38;4836372;29;20165;-92
2023/03/27 07:38:07;;;;;;;26.93;14.93;;;;;;;-141.97;52.42;47567.13;4838721;29;20181;-92
2023/03/27 07:40:34;;;;;;;27.33;15.37;;;;;;;-141.97;51.77;47403.75;4850491;29;20237;-94
2023/03/27 07:43:00;;;;;;;28.67;16.57;;;;;;;-141.97;52.53;47592.13;4833142;29;20233;-92
2023/03/27 07:45:26;;;;;;;31.03;16.20;;;;;;;-141.97;52.02;47472.94;4832901;29;20253;-92
2023/03/27 07:47:51;;;;;;;28.67;16.07;;;;;;;-141.97;52.12;47615.19;4826944;29;20245;-91
2023/03/27 07:50:19;;;;;;;26.67;15.77;;;;;;;-141.97;53.09;47572.91;4826513;29;20589;-93
2023/03/27 07:52:45;;;;;;;28.97;16.80;;;;;;;-141.97;55.89;47380.69;4830710;29;20185;-92
2023/03/27 07:55:16;;;;;;;32.00;17.03;;;;;;;-141.97;55.52;47603.66;4829609;29;20639;-91
2023/03/27 07:57:47;;;;;;;30.43;17.23;;;;;;;-141.97;57.15;47649.78;4836397;29;20181;-92
2023/03/27 08:00:16;;;;;;;32.00;17.60;;;;;;;-141.97;57.43;47590.19;4828302;29;20250;-95
2023/03/27 08:02:46;;;;;;;32.47;17.63;;;;;;;-141.97;57.26;47449.88;4848668;29;20176;-95
2023/03/27 08:07:47;;;;;;;26.40;16.47;;;;;;;-141.97;54.41;47451.81;4918160;24;20272;-92
2023/03/27 08:10:13;;;;;;;26.67;16.33;;;;;;;-141.97;56.59;47578.66;4850048;29;20205;-91
2023/03/27 08:12:38;;;;;;;27.50;16.83;;;;;;;-141.97;57.52;47526.75;4850099;29;20241;-91
2023/03/27 08:15:06;;;;;;;33.10;16.83;;;;;;;-141.97;56.69;47407.59;4846639;29;20183;-92
2023/03/27 08:17:32;;;;;;;30.77;17.57;;;;;;;-141.97;57.78;47422.97;4855616;29;20236;-91
2023/03/27 08:20:07;;;;;;;29.97;17.17;;;;;;;-141.97;55.46;47557.53;4942906;24;20229;-91
2023/03/27 08:22:35;;;;;;;30.30;17.23;;;;;;;-141.97;55.29;47480.63;4867146;29;20176;-93
2023/03/27 08:25:02;;;;;;;31.67;17.57;;;;;;;-141.97;55.65;47688.22;4860242;29;20173;-93
2023/03/27 08:27:28;;;;;;;30.73;16.87;;;;;;;-141.97;56.25;47469.09;4840543;29;20178;-91
2023/03/27 08:29:53;;;;;;;30.30;16.93;;;;;;;-141.97;55.75;47538.28;4852344;29;20215;-93
2023/03/27 08:32:18;;;;;;;31.73;17.60;;;;;;;-141.97;56.16;47517.16;4850339;29;20614;-94
2023/03/27 08:34:44;;;;;;;32.67;18.70;;;;;;;-141.97;55.91;47540.22;4858836;29;20288;-95
2023/03/27 08:37:10;;;;;;;31.40;18.90;;;;;;;-141.97;55.57;47544.06;4833428;29;20172;-93
2023/03/27 08:39:35;;;;;;;35.10;19.30;;;;;;;-141.97;56.43;47684.38;4847211;29;20187;-92
2023/03/27 08:42:04;;;;;;;35.00;19.40;;;;;;;-141.97;56.78;47665.16;4851904;29;20189;-92
2023/03/27 08:44:31;;;;;;;34.00;18.60;;;;;;;-141.97;53.24;47438.34;4840503;29;20184;-93
2023/03/27 08:47:08;;;;;;;32.60;18.93;;;;;;;-141.97;51.83;47676.69;4857009;29;20197;-91
2023/03/27 08:49:38;;;;;;;34.30;20.33;;;;;;;-141.97;51.48;47619.03;4848421;29;20570;-94
2023/03/27 08:52:14;;;;;;;33.07;19.20;;;;;;;-141.97;52.25;47561.38;4844972;29;20481;-91
2023/03/27 08:54:43;;;;;;;35.37;19.87;;;;;;;-141.97;51.47;47346.09;4844809;29;20646;-92
2023/03/27 08:57:20;;;;;;;30.80;18.57;;;;;;;-141.97;50.37;47551.75;4844980;29;20176;-91
2023/03/27 08:59:46;;;;;;;32.47;18.80;;;;;;;-141.97;49.97;47670.91;4843117;29;20180;-92
2023/03/27 09:02:43;;;;;;;26.93;17.13;;;;;;;-141.97;48.32;47546.00;4845087;29;20185;-91
2023/03/27 09:05:39;;;;;;;28.77;17.27;;;;;;;-141.97;45.98;47319.19;4842149;29;20275;-91
2023/03/27 09:08:20;;;;;;;26.63;16.77;;;;;;;-141.97;46.50;47353.78;4876201;29;20247;-92
2023/03/27 09:11:16;;;;;;;24.43;15.87;;;;;;;-141.97;44.74;47653.63;4861662;29;20269;-92
2023/03/27 09:13:46;;;;;;;25.07;15.10;;;;;;;-141.97;43.51;47546.00;4866071;29;20187;-93
2023/03/27 09:16:38;;;;;;;22.83;14.03;;;;;;;-141.97;41.82;47517.16;4872120;29;20191;-93
2023/03/27 09:19:30;;;;;;;18.47;12.17;;;;;;;-141.97;40.71;47555.59;4833290;29;20334;-92
2023/03/27 09:22:03;;;;;;;18.00;12.00;;;;;;;-141.97;39.45;47530.59;4840801;29;20231;-91
2023/03/27 09:24:35;;;;;;;18.83;12.60;;;;;;;-141.97;39.38;47407.59;4828446;29;20226;-91
2023/03/27 09:27:17;;;;;;;15.70;11.23;;;;;;;-141.97;38.99;47715.13;4844536;29;20628;-92
2023/03/27 09:29:42;;;;;;;17.07;11.20;;;;;;;-141.97;39.37;47469.09;4834164;29;20188;-91
2023/03/27 09:32:13;;;;;;;16.00;10.90;;;;;;;-141.97;38.05;47511.38;4841099;29;20220;-91
2023/03/27 09:34:39;;;;;;;15.67;10.87;;;;;;;-141.97;37.10;47642.09;4839703;29;20208;-92
2023/03/27 09:37:11;;;;;;;12.93;9.20;;;;;;;-141.97;36.25;47474.88;4840229;29;20636;-92
2023/03/27 09:39:41;;;;;;;12.77;8.90;;;;;;;-141.97;35.10;47417.22;4840170;29;20173;-91
2023/03/27 09:42:38;;;;;;;14.50;8.27;;;;;;;-141.97;34.66;47492.16;4830387;29;20297;-90
2023/03/27 09:45:06;;;;;;;11.93;8.40;;;;;;;-141.97;34.51;47313.44;4751496;30;20199;-92
2023/03/27 09:47:37;;;;;;;11.67;8.30;;;;;;;-141.97;34.83;47486.41;4738285;30;20184;-91
2023/03/27 09:50:24;;;;;;;11.23;6.90;;;;;;;-141.97;34.36;47471.03;4735237;30;20196;-89
2023/03/27 09:52:51;;;;;;;6.27;5.53;;;;;;;-141.97;34.42;47557.53;4750311;30;20183;-92
2023/03/27 09:55:29;;;;;;;8.97;6.37;;;;;;;-141.97;34.95;47665.16;4745539;30;20205;-91
2023/03/27 09:58:07;;;;;;;12.97;8.87;;;;;;;-141.97;35.23;47519.06;4771648;30;20228;-91
2023/03/27 10:00:34;;;;;;;9.57;6.73;;;;;;;-141.97;35.33;47405.69;4787707;29;20644;-91
2023/03/27 10:03:12;;;;;;;8.23;6.17;;;;;;;-141.97;35.23;47557.53;4786182;29;20289;-92
2023/03/27 10:05:37;;;;;;;15.57;9.17;;;;;;;-141.97;37.68;47501.78;4789418;30;20283;-91
2023/03/27 10:08:23;;;;;;;19.57;13.03;;;;;;;-141.97;41.22;47724.75;4790972;29;20190;-91
2023/03/27 10:10:57;;;;;;;23.57;14.63;;;;;;;-141.97;43.03;47338.41;4773785;30;20232;-90
2023/03/27 10:13:26;;;;;;;24.73;14.63;;;;;;;-141.97;43.77;47607.50;4784741;29;20186;-90
2023/03/27 10:16:06;;;;;;;23.10;13.73;;;;;;;-141.97;44.51;47271.16;4770663;30;20209;-91
2023/03/27 10:18:39;;;;;;;29.87;16.83;;;;;;;-141.97;44.80;47680.53;4776422;29;20253;-90
2023/03/27 10:21:15;;;;;;;24.83;15.23;;;;;;;-141.97;42.95;47407.59;4813639;29;20398;-90
2023/03/27 10:23:42;;;;;;;25.50;16.10;;;;;;;-141.97;42.42;47555.59;4862873;29;20172;-90
2023/03/27 10:26:12;;;;;;;22.77;13.70;;;;;;;-141.97;42.99;47540.22;4845236;29;20283;-92
2023/03/27 10:28:45;;;;;;;21.83;14.37;;;;;;;-141.97;43.75;47403.75;4836395;29;20568;-91
2023/03/27 10:31:31;;;;;;;20.93;12.93;;;;;;;-141.97;44.23;47407.59;4854443;29;20201;-90
2023/03/27 10:34:00;;;;;;;21.93;15.27;;;;;;;-141.97;45.16;47519.06;4840487;29;20264;-90
2023/03/27 10:36:26;;;;;;;26.60;15.70;;;;;;;-141.97;44.88;47430.66;4826059;29;20182;-90
2023/03/27 10:38:59;;;;;;;22.27;14.77;;;;;;;-141.97;44.71;47557.53;4851635;29;20223;-91
2023/03/27 10:41:26;;;;;;;21.63;14.70;;;;;;;-141.97;45.04;47415.28;4828521;29;20173;-91
2023/03/27 10:43:53;;;;;;;22.17;13.27;;;;;;;-141.97;44.04;47720.91;4841898;29;20188;-91
2023/03/27 10:46:21;;;;;;;22.57;14.07;;;;;;;-141.97;44.68;47469.09;4830026;29;20177;-90
2023/03/27 10:49:15;;;;;;;21.03;13.43;;;;;;;-141.97;44.07;47674.78;4855828;29;20165;-91
2023/03/27 10:52:05;;;;;;;20.90;13.93;;;;;;;-141.97;43.91;47540.22;4842240;29;20236;-90
2023/03/27 10:54:46;;;;;;;17.97;11.40;;;;;;;-141.97;43.92;47542.16;4829094;29;20612;-90
2023/03/27 10:57:21;;;;;;;22.00;13.80;;;;;;;-141.97;44.59;47386.47;4826385;29;20177;-89
2023/03/27 10:59:59;;;;;;;20.97;13.00;;;;;;;-141.97;44.45;47557.53;4840385;29;20191;-89
2023/03/27 11:02:42;;;;;;;20.97;12.47;;;;;;;-141.97;44.82;47536.38;4856197;29;20267;-90
2023/03/27 11:05:30;;;;;;;28.13;15.77;;;;;;;-141.97;44.36;47592.13;4827036;29;20324;-89
2023/03/27 11:08:08;;;;;;;27.00;16.10;;;;;;;-141.97;44.08;47553.69;4842441;29;20276;-91
2023/03/27 11:10:43;;;;;;;23.33;14.17;;;;;;;-141.97;43.29;47622.88;4846512;29;20204;-88
2023/03/27 11:13:27;;;;;;;32.97;16.60;;;;;;;-141.97;41.99;47438.34;4837861;29;20181;-88
2023/03/27 11:16:07;;;;;;;25.20;14.40;;;;;;;-141.97;40.83;47388.38;4836675;29;20173;-89
2023/03/27 11:18:39;;;;;;;33.10;16.90;;;;;;;-141.97;41.42;47511.38;4837762;29;21128;-91
2023/03/27 11:21:14;;;;;;;26.50;14.30;;;;;;;-141.97;41.57;47707.44;4830313;29;20228;-89
2023/03/27 11:24:30;;;;;;;25.13;17.53;;;;;;;-141.97;40.08;47465.25;4837435;29;20173;-89
2023/03/27 11:32:36;;;;;;;17.37;12.00;;;;;;;-141.97;39.42;47484.47;5117622;24;20299;-92
2023/03/27 11:35:15;;;;;;;17.43;11.90;;;;;;;-141.97;39.33;47472.94;4888617;29;20188;-88
2023/03/27 11:37:53;;;;;;;14.43;10.67;;;;;;;-141.97;38.59;47553.69;4902024;29;20275;-89
2023/03/27 11:40:41;;;;;;;20.70;13.90;;;;;;;-141.97;38.17;47522.91;4887186;29;20191;-88
2023/03/27 11:43:11;;;;;;;23.33;14.97;;;;;;;-141.97;38.03;47496.00;4888513;29;20187;-90
2023/03/27 11:46:23;;;;;;;33.10;22.97;;;;;;;-141.97;36.39;47430.66;4869692;29;20183;-89
2023/03/27 11:49:25;;;;;;;43.70;27.87;;;;;;;-141.97;33.83;47403.75;4862509;29;20649;-89
2023/03/27 11:52:20;;;;;;;33.53;21.13;;;;;;;-141.97;33.64;47401.84;4851353;29;20220;-90
2023/03/27 11:54:59;;;;;;;10.47;7.87;;;;;;;-141.97;32.31;47555.59;4868069;29;20184;-90
2023/03/27 11:57:25;;;;;;;25.10;17.52;;;;;;;-141.97;31.78;47569.06;4870341;29;20256;-89
2023/03/27 12:00:16;;;;;;;24.20;16.05;;;;;;;-141.97;31.94;47472.94;4845500;29;20195;-89
2023/03/27 12:02:55;;;;;;;10.88;7.85;;;;;;;-141.97;31.11;47438.34;4868693;29;20190;-89
2023/03/27 12:05:58;;;;;;;8.27;6.40;;;;;;;-141.97;29.66;47446.03;4871186;29;20251;-91
2023/03/27 12:08:50;;;;;;;7.95;5.95;;;;;;;-141.97;28.90;47392.22;4867542;29;20215;-91
2023/03/27 12:11:23;;;;;;;7.40;5.68;;;;;;;-141.97;29.23;47465.25;4794180;30;20295;-88
2023/03/27 12:14:05;;;;;;;7.30;6.07;;;;;;;-141.97;29.86;47265.38;4810817;29;20266;-88
2023/03/27 12:16:55;;;;;;;7.05;5.40;;;;;;;-141.97;29.83;47472.94;4778496;30;20660;-90
2023/03/27 12:19:53;;;;;;;6.57;4.97;;;;;;;-141.97;29.78;47472.94;4787432;29;20251;-91
2023/03/27 12:22:46;;;;;;;7.70;4.90;;;;;;;-141.97;29.98;47467.19;4788058;30;20185;-91
2023/03/27 12:25:22;;;;;;;6.68;5.10;;;;;;;-141.97;30.25;47617.09;4870536;23;20868;-89
2023/03/27 12:28:02;;;;;;;5.53;4.93;;;;;;;-141.97;30.35;47472.94;4856938;29;20262;-89
2023/03/27 12:30:48;;;;;;;6.93;5.30;;;;;;;-141.97;29.95;47440.28;4851587;29;20205;-88
2023/03/27 12:33:20;;;;;;;10.93;5.70;;;;;;;-141.97;29.62;47444.13;4851330;29;20710;-89
2023/03/27 12:35:49;;;;;;;5.40;4.50;;;;;;;-141.97;29.61;47694.00;4871690;29;20832;-88
2023/03/27 12:38:26;;;;;;;5.35;4.57;;;;;;;-141.97;29.25;47371.09;4857118;29;20174;-88
2023/03/27 12:40:51;;;;;;;10.07;7.88;;;;;;;-141.97;29.04;47488.31;4851375;29;20200;-89
2023/03/27 12:43:20;;;;;;;7.57;5.68;;;;;;;-141.97;29.05;47471.03;4854141;29;20600;-89
2023/03/27 12:46:11;;;;;;;7.93;5.40;;;;;;;-141.97;29.67;47465.25;4849552;29;20181;-89
2023/03/27 12:48:53;;;;;;;6.63;5.07;;;;;;;-141.97;29.72;47422.97;4852780;29;20573;-89
2023/03/27 12:51:41;;;;;;;8.37;5.20;;;;;;;-141.97;30.21;47457.56;4853502;29;20733;-87
2023/03/27 12:54:20;;;;;;;7.43;4.80;;;;;;;-141.97;30.21;47484.47;4844499;29;20653;-87
2023/03/27 12:57:03;;;;;;;7.70;5.20;;;;;;;-141.97;30.57;47478.72;4857895;29;20724;-89
2023/03/27 12:59:35;;;;;;;7.60;5.00;;;;;;;-141.97;31.10;47497.94;4860216;29;20183;-88
2023/03/27 13:02:13;;;;;;;7.67;5.10;;;;;;;-141.97;30.73;47461.41;4859984;29;20176;-88
2023/03/27 13:05:04;;;;;;;7.03;4.90;;;;;;;-141.97;31.04;47509.47;4860167;29;20239;-88
2023/03/27 13:08:09;;;;;;;7.03;4.63;;;;;;;-141.97;30.58;47486.41;4858958;29;20176;-90
2023/03/27 13:10:52;;;;;;;8.00;5.23;;;;;;;-141.97;31.56;47438.34;4860654;29;20391;-89
2023/03/27 13:13:20;;;;;;;8.17;5.23;;;;;;;-141.97;31.10;47519.06;4860178;29;20717;-89
2023/03/27 13:16:38;;;;;;;5.70;4.57;;;;;;;-141.97;31.35;47488.31;4859868;29;20176;-89
2023/03/27 13:19:19;;;;;;;5.27;3.93;;;;;;;-141.97;31.24;47407.59;4855873;29;20267;-90
2023/03/27 13:21:47;;;;;;;6.90;4.73;;;;;;;-141.97;31.59;47522.91;4860603;29;20242;-89
2023/03/27 13:24:44;;;;;;;5.33;4.37;;;;;;;-141.97;31.72;47530.59;4860464;29;20254;-90
2023/03/27 13:28:03;;;;;;;6.43;3.73;;;;;;;-141.97;31.64;47488.31;4876826;29;20191;-88
2023/03/27 13:30:40;;;;;;;5.80;4.07;;;;;;;-141.97;32.48;47553.69;4787297;30;20301;-89
2023/03/27 13:33:30;;;;;;;18.33;5.90;;;;;;;-141.97;33.25;47503.69;4791538;30;20555;-89
2023/03/27 13:36:05;;;;;;;22.47;8.33;;;;;;;-141.97;33.80;47503.69;4785132;30;20214;-89
2023/03/27 13:38:50;;;;;;;28.47;8.77;;;;;;;-141.97;36.09;47522.91;4791155;30;20726;-89
2023/03/27 13:41:47;;;;;;;64.63;8.77;;;;;;;-141.97;38.04;47522.91;4791668;29;20198;-89
2023/03/27 13:44:46;;;;;;;54.10;9.20;;;;;;;-141.97;39.13;47647.84;4799970;29;20448;-92
2023/03/27 13:47:32;;;;;;;28.63;6.03;;;;;;;-141.97;43.75;47557.53;4753025;30;20672;-89
2023/03/27 13:50:07;;;;;;;60.40;8.30;;;;;;;-141.97;45.85;47542.16;4754647;30;20196;-89
2023/03/27 13:53:11;;;;;;;48.67;8.53;;;;;;;-141.97;48.86;47580.59;4749629;30;20761;-88
2023/03/27 13:55:56;;;;;;;19.27;4.90;;;;;;;-141.97;64.22;47582.50;4749984;30;20176;-87
2023/03/27 13:58:46;;;;;;;9.87;4.03;;;;;;;-141.97;71.12;47561.38;4748947;30;20281;-89
2023/03/27 14:01:35;;;;;;;4.70;3.20;;;;;;;-141.97;76.31;47572.91;4749176;30;20184;-91
2023/03/27 14:04:43;;;;;;;7.77;3.67;;;;;;;-141.97;78.45;47534.44;4779542;29;20205;-90
2023/03/27 14:07:27;;;;;;;10.30;3.83;;;;;;;-141.97;79.61;47561.38;4802796;29;20253;-88
2023/03/27 14:10:14;;;;;;;10.63;3.70;;;;;;;-141.97;79.40;47561.38;4788053;29;20209;-87
2023/03/27 14:13:07;;;;;;;18.37;2.83;;;;;;;-141.97;81.61;47569.06;4802855;29;20295;-87
2023/03/27 14:15:56;;;;;;;6.77;4.07;;;;;;;-141.97;85.21;47595.97;4792549;29;20178;-87
2023/03/27 14:18:28;;;;;;;3.93;2.93;;;;;;;-141.97;85.62;47588.28;4811666;29;20198;-88
2023/03/27 14:21:00;;;;;;;6.87;3.27;;;;;;;-141.97;87.32;47620.94;4803332;29;20271;-87
2023/03/27 14:23:34;;;;;;;5.77;3.20;;;;;;;-141.97;87.99;47561.38;4819016;29;20211;-86
2023/03/27 14:26:05;;;;;;;4.40;2.37;;;;;;;-141.97;88.83;47603.66;4857709;29;20195;-87
2023/03/27 14:28:44;;;;;;;7.03;2.07;;;;;;;-141.97;90.01;47601.72;4857269;29;20224;-88
2023/03/27 14:31:13;;;;;;;5.80;2.90;;;;;;;-141.97;92.35;47695.91;4860940;29;20342;-88
2023/03/27 14:33:48;;;;;;;17.57;5.67;;;;;;;-141.97;94.01;47513.31;4856426;29;20188;-88
2023/03/27 14:36:15;;;;;;;2.33;1.80;;;;;;;-141.97;93.47;47592.13;4857201;29;20179;-86
2023/03/27 14:38:41;;;;;;;2.60;1.63;;;;;;;-141.97;94.15;47595.97;4859107;29;20596;-87
2023/03/27 14:41:19;;;;;;;2.40;1.50;;;;;;;-141.97;95.91;47592.13;4863176;29;20164;-85
2023/03/27 14:43:50;;;;;;;4.80;1.70;;;;;;;-141.97;97.57;47565.22;4866905;29;20180;-89
2023/03/27 14:46:18;;;;;;;2.30;1.00;;;;;;;-141.97;98.45;47592.13;4859655;29;20179;-88
2023/03/27 14:48:46;;;;;;;4.53;1.77;;;;;;;-141.97;100.00;47603.66;4861378;29;21146;-88
2023/03/27 14:51:18;;;;;;;9.80;5.17;;;;;;;-141.97;100.00;47547.91;4861314;29;20279;-87
2023/03/27 14:53:48;;;;;;;10.27;2.73;;;;;;;-141.97;100.00;47590.19;4877043;29;20794;-87
2023/03/27 14:56:28;;;;;;;9.47;2.73;;;;;;;-141.97;100.00;47592.13;4864620;29;20535;-88
2023/03/27 14:58:57;;;;;;;11.47;3.73;;;;;;;-141.97;100.00;47669.00;4860005;29;20176;-87
2023/03/27 15:01:24;;;;;;;7.90;2.70;;;;;;;-141.97;100.00;47655.53;4862690;29;20191;-88
2023/03/27 15:03:51;;;;;;;6.30;2.67;;;;;;;-141.97;100.00;47521.00;4876931;29;20561;-88
2023/03/27 15:06:19;;;;;;;6.67;2.80;;;;;;;-141.97;100.00;47597.88;4878740;29;20180;-89
2023/03/27 15:08:51;;;;;;;2.93;1.57;;;;;;;-141.97;100.00;47584.44;4863766;29;20168;-90